Time;durP1;ratioP1;P1;durP2;ratioP2;P2;SDS_P1;SDS_P2;PMS_P1;PMS_P2;Temp;Humidity;BMP_temperature;BMP_pressure;BME280_temperature;BME280_humidity;BME280_pressure;Samples;Min_cycle;Max_cycle;Signal;HPM_P1;HPM_P2
2022/08/10 00:00:42;;;;;;;297.75;207.23;;;14.80;99.90;;;;;;4971119;28;20043;-64
2022/08/10 00:03:10;;;;;;;293.15;208.40;;;14.70;99.90;;;;;;4972293;28;20433;-64
2022/08/10 00:05:37;;;;;;;301.35;215.25;;;14.70;99.90;;;;;;4972462;28;20134;-64
2022/08/10 00:08:04;;;;;;;338.50;244.95;;;14.70;99.70;;;;;;4971301;28;20040;-64
2022/08/10 00:10:31;;;;;;;315.02;224.55;;;14.60;99.50;;;;;;4970701;28;20063;-64
2022/08/10 00:12:58;;;;;;;318.67;232.55;;;14.60;99.50;;;;;;4971244;28;20076;-64
2022/08/10 00:15:25;;;;;;;313.38;224.95;;;14.50;99.60;;;;;;4972726;28;20091;-64
2022/08/10 00:17:52;;;;;;;309.42;223.50;;;14.50;99.70;;;;;;4971186;28;20055;-64
2022/08/10 00:20:21;;;;;;;307.45;222.65;;;14.50;99.60;;;;;;4970832;28;20055;-64
2022/08/10 00:22:47;;;;;;;312.83;228.63;;;14.50;99.60;;;;;;4972280;28;20055;-64
2022/08/10 00:25:14;;;;;;;311.60;225.23;;;14.40;99.70;;;;;;4970425;28;20057;-64
2022/08/10 00:27:42;;;;;;;325.00;236.45;;;14.40;99.80;;;;;;4971011;28;20055;-64
2022/08/10 00:30:09;;;;;;;317.42;227.45;;;14.40;99.80;;;;;;4970604;28;20054;-65
2022/08/10 00:32:36;;;;;;;315.88;227.90;;;14.40;99.90;;;;;;4970955;28;20055;-64
2022/08/10 00:35:04;;;;;;;317.23;225.70;;;14.30;99.60;;;;;;4972496;28;20055;-65
2022/08/10 00:37:32;;;;;;;308.02;219.25;;;14.20;99.40;;;;;;4970830;28;20536;-64
2022/08/10 00:39:59;;;;;;;303.10;217.35;;;14.20;99.40;;;;;;4970075;28;20049;-64
2022/08/10 00:42:26;;;;;;;307.83;218.20;;;14.10;99.40;;;;;;4971917;28;20991;-64
2022/08/10 00:44:53;;;;;;;310.20;220.32;;;14.10;99.90;;;;;;4971612;28;20058;-65
2022/08/10 00:47:20;;;;;;;305.48;219.00;;;14.00;99.80;;;;;;4970455;28;20051;-64
2022/08/10 00:49:47;;;;;;;304.15;215.43;;;14.00;99.80;;;;;;4971478;28;20179;-65
2022/08/10 00:52:15;;;;;;;309.27;218.45;;;14.00;99.90;;;;;;4972083;28;20509;-64
2022/08/10 00:54:44;;;;;;;314.65;222.93;;;13.90;99.90;;;;;;4970701;28;20131;-65
2022/08/10 00:57:13;;;;;;;307.30;215.23;;;13.80;99.90;;;;;;4970594;28;20058;-65
2022/08/10 00:59:40;;;;;;;306.83;216.00;;;13.80;99.90;;;;;;4970340;28;20098;-65
2022/08/10 01:02:07;;;;;;;307.52;217.20;;;13.70;99.90;;;;;;4970758;28;20059;-65
2022/08/10 01:04:34;;;;;;;315.92;221.55;;;13.70;99.90;;;;;;4970921;28;20142;-64
2022/08/10 01:07:25;;;;;;;305.77;212.80;;;13.70;99.80;;;;;;4970722;28;20126;-64
2022/08/10 01:10:03;;;;;;;305.52;209.30;;;13.70;99.90;;;;;;4971443;28;20055;-64
2022/08/10 01:12:39;;;;;;;304.25;206.90;;;13.60;99.90;;;;;;4971421;28;20059;-64
2022/08/10 01:15:15;;;;;;;304.33;206.38;;;13.60;99.90;;;;;;4971738;28;20047;-64
2022/08/10 01:17:50;;;;;;;302.23;207.93;;;13.60;99.90;;;;;;4970349;28;20051;-64
2022/08/10 01:20:25;;;;;;;313.33;215.80;;;13.60;99.90;;;;;;4970099;28;20043;-65
2022/08/10 01:23:22;;;;;;;317.98;223.40;;;13.60;99.90;;;;;;4970447;28;20054;-64
2022/08/10 01:26:09;;;;;;;319.95;218.85;;;13.60;99.90;;;;;;4963903;28;20058;-64
2022/08/10 01:28:49;;;;;;;335.92;230.85;;;13.60;99.90;;;;;;4971036;28;20977;-64
2022/08/10 01:31:23;;;;;;;338.65;229.57;;;13.60;99.90;;;;;;4970100;28;20460;-64
2022/08/10 01:33:55;;;;;;;302.38;207.50;;;13.60;99.90;;;;;;4970146;28;20517;-65
2022/08/10 01:36:28;;;;;;;306.65;208.55;;;13.60;99.90;;;;;;4970441;28;20498;-64
2022/08/10 01:38:59;;;;;;;311.27;217.18;;;13.60;99.90;;;;;;4970817;28;20047;-64
2022/08/10 01:41:30;;;;;;;310.92;212.90;;;13.60;99.90;;;;;;4971360;28;20063;-65
2022/08/10 01:44:01;;;;;;;309.45;209.55;;;13.60;99.90;;;;;;4971477;28;20493;-64
2022/08/10 01:46:30;;;;;;;313.95;211.25;;;13.60;99.90;;;;;;4971926;28;20063;-64
2022/08/10 01:48:58;;;;;;;302.90;204.95;;;13.70;99.90;;;;;;4969508;28;20641;-64
2022/08/10 01:51:29;;;;;;;306.50;208.68;;;13.70;99.90;;;;;;4971282;28;20055;-65
2022/08/10 01:54:00;;;;;;;366.73;257.25;;;13.70;99.90;;;;;;4969553;28;20066;-65
2022/08/10 01:56:30;;;;;;;357.42;250.88;;;13.80;99.90;;;;;;4970172;28;20827;-64
2022/08/10 01:59:01;;;;;;;341.10;239.73;;;13.70;99.90;;;;;;4972028;28;20052;-64
2022/08/10 02:01:34;;;;;;;335.10;230.90;;;13.70;99.90;;;;;;4971972;28;20047;-65
2022/08/10 02:04:05;;;;;;;341.80;236.02;;;13.70;99.90;;;;;;4974536;28;20126;-65
2022/08/10 02:06:35;;;;;;;306.75;213.25;;;13.70;99.90;;;;;;4992428;23;20027;-66
2022/08/10 02:09:04;;;;;;;299.25;208.07;;;13.70;99.90;;;;;;5011414;28;20062;-64
2022/08/10 02:11:31;;;;;;;298.75;205.50;;;13.60;99.90;;;;;;5011872;28;20058;-64
2022/08/10 02:14:00;;;;;;;308.05;211.65;;;13.60;99.90;;;;;;5013024;28;20062;-64
2022/08/10 02:16:28;;;;;;;326.90;227.50;;;13.60;99.90;;;;;;5011665;28;20054;-65
2022/08/10 02:18:58;;;;;;;319.77;223.77;;;13.60;99.90;;;;;;5012520;28;20054;-64
2022/08/10 02:21:28;;;;;;;319.52;220.07;;;13.60;99.90;;;;;;5011890;28;20047;-65
2022/08/10 02:23:57;;;;;;;295.02;202.00;;;13.50;99.90;;;;;;5013523;28;20166;-64
2022/08/10 02:26:26;;;;;;;292.00;199.57;;;13.50;99.90;;;;;;5013694;28;20125;-64
2022/08/10 02:28:54;;;;;;;298.38;202.75;;;13.40;99.90;;;;;;5011505;28;20053;-65
2022/08/10 02:31:23;;;;;;;308.40;208.65;;;13.40;99.90;;;;;;5012276;28;20212;-65
2022/08/10 02:33:52;;;;;;;344.20;234.10;;;13.50;99.90;;;;;;5011516;28;20532;-64
2022/08/10 02:36:22;;;;;;;302.83;201.40;;;13.50;99.90;;;;;;5012826;28;20054;-64
2022/08/10 02:38:52;;;;;;;303.25;202.13;;;13.60;99.90;;;;;;5011494;28;20145;-64
2022/08/10 02:41:25;;;;;;;301.90;199.68;;;13.60;99.90;;;;;;5011212;28;20579;-64
2022/08/10 02:43:57;;;;;;;299.48;197.98;;;13.70;99.90;;;;;;5010946;28;20475;-65
2022/08/10 02:46:42;;;;;;;309.75;204.82;;;13.70;99.90;;;;;;5013279;28;20089;-64
2022/08/10 02:49:20;;;;;;;307.50;203.82;;;13.70;99.90;;;;;;5010942;28;20587;-65
2022/08/10 02:51:54;;;;;;;315.50;206.75;;;13.70;99.90;;;;;;5011537;28;20054;-64
2022/08/10 02:54:24;;;;;;;307.35;207.23;;;13.70;99.90;;;;;;5011022;28;20555;-65
2022/08/10 02:56:54;;;;;;;344.23;234.77;;;13.80;99.90;;;;;;5010827;28;20963;-64
2022/08/10 02:59:27;;;;;;;312.85;215.57;;;13.80;99.90;;;;;;4994618;28;20050;-64
2022/08/10 03:01:57;;;;;;;307.30;209.15;;;13.80;99.90;;;;;;5010958;28;20489;-65
2022/08/10 03:04:29;;;;;;;308.83;212.68;;;13.80;99.90;;;;;;5011288;28;20496;-64
2022/08/10 03:07:02;;;;;;;333.30;222.48;;;13.80;99.90;;;;;;5011980;28;20062;-65
2022/08/10 03:09:31;;;;;;;303.42;202.05;;;13.80;99.90;;;;;;5011297;28;20050;-65
2022/08/10 03:12:00;;;;;;;304.45;204.80;;;13.80;99.90;;;;;;5010964;28;20101;-65
2022/08/10 03:14:39;;;;;;;306.67;202.07;;;13.80;99.90;;;;;;5015448;28;20057;-64
2022/08/10 03:17:08;;;;;;;321.88;209.50;;;13.80;99.90;;;;;;5012173;28;20886;-64
2022/08/10 03:19:37;;;;;;;312.45;210.90;;;13.80;99.90;;;;;;5010879;28;20046;-65
2022/08/10 03:22:07;;;;;;;308.63;208.27;;;13.80;99.90;;;;;;5011000;28;20133;-65
2022/08/10 03:24:34;;;;;;;298.33;201.13;;;13.80;99.90;;;;;;5011019;28;20109;-65
2022/08/10 03:27:02;;;;;;;307.80;209.35;;;13.80;99.90;;;;;;5012418;28;20054;-64
2022/08/10 03:29:31;;;;;;;311.20;214.02;;;13.80;99.90;;;;;;5010169;28;20047;-65
2022/08/10 03:32:00;;;;;;;336.38;230.85;;;13.70;99.90;;;;;;5013688;28;20817;-65
2022/08/10 03:34:27;;;;;;;310.88;214.50;;;13.70;99.90;;;;;;5010784;28;20055;-64
2022/08/10 03:36:54;;;;;;;320.67;219.35;;;13.60;99.90;;;;;;5011109;28;20145;-64
2022/08/10 03:39:23;;;;;;;321.15;217.98;;;13.60;99.90;;;;;;5011529;28;20054;-65
2022/08/10 03:41:54;;;;;;;326.48;224.27;;;13.50;99.90;;;;;;5010918;28;20050;-64
2022/08/10 03:44:25;;;;;;;306.25;205.93;;;13.40;99.90;;;;;;5010028;28;20058;-64
2022/08/10 03:46:54;;;;;;;317.20;213.07;;;13.40;99.90;;;;;;5012005;28;20054;-64
2022/08/10 03:49:22;;;;;;;314.83;211.07;;;13.40;99.90;;;;;;5011692;28;20077;-65
2022/08/10 03:51:50;;;;;;;325.33;217.35;;;13.40;99.90;;;;;;5010255;28;20074;-64
2022/08/10 03:54:17;;;;;;;315.35;210.02;;;13.30;99.90;;;;;;5011209;28;20137;-65
2022/08/10 03:56:47;;;;;;;312.65;209.40;;;13.40;99.90;;;;;;5010258;28;20054;-64
2022/08/10 03:59:16;;;;;;;308.80;206.98;;;13.40;99.90;;;;;;5010053;28;20049;-65
2022/08/10 04:01:45;;;;;;;308.42;206.07;;;13.40;99.90;;;;;;5010526;28;20130;-65
2022/08/10 04:04:12;;;;;;;312.30;204.77;;;13.40;99.90;;;;;;5011470;28;20054;-64
2022/08/10 04:06:39;;;;;;;302.25;198.90;;;13.50;99.90;;;;;;5009949;28;20047;-65
2022/08/10 04:09:07;;;;;;;297.98;195.32;;;13.50;99.90;;;;;;5009891;28;20046;-65
2022/08/10 04:11:35;;;;;;;296.92;197.00;;;13.50;99.90;;;;;;5026345;28;20053;-64
2022/08/10 04:14:04;;;;;;;296.42;196.18;;;13.40;99.90;;;;;;5011445;28;20073;-64
2022/08/10 04:16:31;;;;;;;296.67;196.40;;;13.40;99.90;;;;;;5009624;28;20061;-65
2022/08/10 04:18:58;;;;;;;299.35;198.80;;;13.30;99.90;;;;;;5009994;28;20200;-64
2022/08/10 04:21:30;;;;;;;303.42;198.65;;;13.30;99.90;;;;;;5010931;28;20497;-64
2022/08/10 04:23:59;;;;;;;316.75;206.52;;;13.30;99.90;;;;;;5009933;28;20046;-65
2022/08/10 04:26:26;;;;;;;305.40;196.15;;;13.30;99.90;;;;;;5009878;28;20055;-64
2022/08/10 04:28:54;;;;;;;306.67;196.43;;;13.20;99.90;;;;;;5009558;28;20055;-64
2022/08/10 04:31:24;;;;;;;300.48;190.85;;;13.20;99.90;;;;;;5010009;28;20050;-64
2022/08/10 04:33:52;;;;;;;301.38;189.85;;;13.20;99.90;;;;;;5011219;28;21036;-64
2022/08/10 04:36:21;;;;;;;305.23;192.20;;;13.10;99.90;;;;;;5009918;28;20097;-64
2022/08/10 04:38:51;;;;;;;306.38;192.77;;;13.00;99.90;;;;;;5009540;28;20631;-64
2022/08/10 04:41:18;;;;;;;300.90;187.00;;;12.90;99.90;;;;;;5011205;28;20504;-64
2022/08/10 04:43:46;;;;;;;305.42;195.13;;;12.90;99.90;;;;;;5025999;28;20064;-65
2022/08/10 04:46:13;;;;;;;318.33;200.55;;;12.90;99.90;;;;;;5011371;28;20142;-64
2022/08/10 04:48:42;;;;;;;319.85;207.38;;;13.00;99.90;;;;;;5011107;28;20054;-64
2022/08/10 04:51:10;;;;;;;320.13;207.30;;;13.00;99.90;;;;;;5010428;28;20050;-64
2022/08/10 04:53:36;;;;;;;314.17;202.95;;;13.10;99.90;;;;;;5009876;28;20057;-64
2022/08/10 04:56:04;;;;;;;320.20;211.80;;;13.10;99.90;;;;;;5010326;28;20130;-64
2022/08/10 04:58:31;;;;;;;321.60;212.15;;;13.20;99.90;;;;;;5009996;28;20074;-64
2022/08/10 05:00:58;;;;;;;333.77;220.63;;;13.30;99.90;;;;;;5003765;28;20145;-65
2022/08/10 05:03:25;;;;;;;332.52;222.85;;;13.30;99.90;;;;;;4990130;28;20051;-64
2022/08/10 05:05:53;;;;;;;328.08;220.40;;;13.50;99.90;;;;;;5006181;28;20540;-64
2022/08/10 05:08:20;;;;;;;349.40;235.95;;;13.60;99.90;;;;;;4989475;28;20054;-65
2022/08/10 05:10:47;;;;;;;338.85;229.68;;;13.80;99.90;;;;;;5005956;28;20571;-64
2022/08/10 05:13:14;;;;;;;341.50;235.10;;;13.80;99.90;;;;;;4989715;28;20039;-65
2022/08/10 05:15:42;;;;;;;338.38;230.40;;;14.00;99.90;;;;;;4991112;28;20051;-65
2022/08/10 05:18:09;;;;;;;336.15;228.32;;;14.00;99.90;;;;;;4989679;28;20549;-65
2022/08/10 05:20:36;;;;;;;335.50;233.85;;;14.20;99.90;;;;;;5005155;28;20131;-65
2022/08/10 05:23:06;;;;;;;339.02;238.00;;;14.20;99.90;;;;;;4989945;28;20304;-64
2022/08/10 05:25:32;;;;;;;330.20;237.18;;;14.30;99.90;;;;;;4989555;28;20535;-64
2022/08/10 05:28:00;;;;;;;335.00;237.73;;;14.40;99.90;;;;;;4990101;28;20145;-64
2022/08/10 05:30:27;;;;;;;331.58;241.70;;;14.40;99.90;;;;;;4990286;28;20051;-64
2022/08/10 05:32:54;;;;;;;349.80;254.77;;;14.50;99.90;;;;;;5019108;28;20070;-65
2022/08/10 05:35:21;;;;;;;336.08;241.90;;;14.60;99.90;;;;;;4991737;28;20423;-65
2022/08/10 05:37:50;;;;;;;328.05;238.18;;;14.70;99.90;;;;;;5011586;28;20136;-64
2022/08/10 05:40:21;;;;;;;327.77;237.93;;;14.70;99.90;;;;;;5011265;28;20393;-65
2022/08/10 05:42:48;;;;;;;331.40;244.05;;;14.80;99.90;;;;;;5017122;28;20820;-65
2022/08/10 05:45:21;;;;;;;329.58;245.57;;;14.90;99.90;;;;;;5001321;28;20536;-65
2022/08/10 05:47:48;;;;;;;331.50;247.15;;;15.00;99.90;;;;;;5001897;28;20440;-65
2022/08/10 05:50:17;;;;;;;336.58;253.80;;;15.10;99.90;;;;;;4999532;28;20118;-65
2022/08/10 05:52:44;;;;;;;329.00;247.18;;;15.20;99.90;;;;;;5008546;28;20129;-64
2022/08/10 05:55:11;;;;;;;336.75;249.63;;;15.20;99.90;;;;;;5003220;28;20058;-65
2022/08/10 05:57:40;;;;;;;330.75;249.57;;;15.30;99.90;;;;;;5001728;28;20128;-64
2022/08/10 06:00:10;;;;;;;329.02;246.85;;;15.40;99.90;;;;;;5001343;28;20054;-64
2022/08/10 06:02:43;;;;;;;322.10;242.10;;;15.50;99.90;;;;;;5021959;28;20434;-64
2022/08/10 06:05:13;;;;;;;338.85;251.93;;;15.60;99.90;;;;;;4982390;28;20054;-65
2022/08/10 06:07:54;;;;;;;327.90;247.10;;;15.70;99.90;;;;;;5009480;28;20050;-65
2022/08/10 06:10:23;;;;;;;323.00;248.43;;;15.80;99.90;;;;;;5005582;28;20089;-64
2022/08/10 06:15:34;;;;;;;324.50;248.68;;;16.00;99.90;;;;;;5003355;28;20178;-64
2022/08/10 06:18:01;;;;;;;325.17;252.43;;;16.00;99.90;;;;;;4995754;28;20054;-64
2022/08/10 06:20:29;;;;;;;324.85;252.73;;;16.10;99.90;;;;;;4997791;28;20082;-64
2022/08/10 06:22:56;;;;;;;323.08;249.23;;;16.20;99.90;;;;;;4998171;28;20061;-64
2022/08/10 06:25:23;;;;;;;322.15;251.52;;;16.20;99.90;;;;;;5007114;28;20133;-64
2022/08/10 06:27:53;;;;;;;323.17;252.25;;;16.30;99.90;;;;;;5016534;28;20521;-65
2022/08/10 06:30:20;;;;;;;322.50;255.90;;;16.40;99.90;;;;;;5000501;28;20050;-64
2022/08/10 06:32:49;;;;;;;322.20;257.55;;;16.40;99.90;;;;;;4993275;28;20055;-64
2022/08/10 06:35:17;;;;;;;321.00;255.32;;;16.50;99.90;;;;;;4990605;28;20057;-64
2022/08/10 06:37:45;;;;;;;325.27;258.80;;;16.60;99.90;;;;;;4992902;28;20505;-64
2022/08/10 06:40:13;;;;;;;324.48;262.63;;;16.70;99.90;;;;;;4982815;28;20056;-63
2022/08/10 06:42:43;;;;;;;323.35;263.00;;;16.80;99.90;;;;;;5010214;28;20063;-62
2022/08/10 06:45:16;;;;;;;325.15;267.88;;;16.90;99.90;;;;;;4993821;28;20459;-63
2022/08/10 06:47:48;;;;;;;322.63;254.43;;;16.90;99.90;;;;;;4927483;28;20101;-61
2022/08/10 06:50:18;;;;;;;349.00;286.98;;;17.00;99.90;;;;;;4998674;28;20057;-61
2022/08/10 06:52:47;;;;;;;359.63;298.38;;;17.10;99.90;;;;;;4993079;28;20126;-61
2022/08/10 06:55:14;;;;;;;345.23;286.45;;;17.20;99.90;;;;;;4995656;28;20054;-61
2022/08/10 06:57:43;;;;;;;363.25;306.65;;;17.30;99.90;;;;;;5001969;28;20053;-61
2022/08/10 07:00:13;;;;;;;360.65;310.10;;;17.40;99.90;;;;;;5016187;28;20056;-61
2022/08/10 07:02:46;;;;;;;350.65;297.83;;;17.60;99.90;;;;;;5002402;28;20077;-61
2022/08/10 07:05:18;;;;;;;353.23;297.67;;;17.70;99.90;;;;;;5016858;28;20138;-61
2022/08/10 07:08:14;;;;;;;353.65;304.90;;;17.80;99.90;;;;;;5001691;28;20699;-61
2022/08/10 07:10:42;;;;;;;341.73;295.10;;;17.90;99.90;;;;;;5003226;28;20054;-61
2022/08/10 07:13:11;;;;;;;359.20;313.33;;;18.00;99.90;;;;;;5011122;28;20054;-60
2022/08/10 07:15:40;;;;;;;355.55;311.20;;;18.10;99.90;;;;;;5010305;28;20053;-60
2022/08/10 07:18:08;;;;;;;349.90;307.42;;;18.20;99.90;;;;;;5011004;28;20064;-61
2022/08/10 07:20:36;;;;;;;338.58;296.75;;;18.40;99.90;;;;;;5011985;28;20058;-60
2022/08/10 07:23:03;;;;;;;339.48;301.38;;;18.50;99.90;;;;;;5010395;28;20050;-61
2022/08/10 07:25:32;;;;;;;332.92;296.45;;;18.60;99.90;;;;;;5010176;28;20052;-60
2022/08/10 07:28:01;;;;;;;326.02;289.58;;;18.70;99.90;;;;;;5012041;28;20070;-61
2022/08/10 07:30:29;;;;;;;410.10;366.98;;;18.80;99.90;;;;;;5010576;28;20050;-60
2022/08/10 07:32:59;;;;;;;436.05;391.30;;;18.90;99.90;;;;;;5010979;28;20058;-60
2022/08/10 07:35:28;;;;;;;395.88;353.55;;;19.00;99.40;;;;;;4995962;28;20117;-60
2022/08/10 07:37:58;;;;;;;398.08;356.23;;;19.10;99.40;;;;;;4991965;28;20888;-60
2022/08/10 07:40:25;;;;;;;404.08;362.08;;;19.20;99.50;;;;;;4989994;28;20085;-60
2022/08/10 07:42:56;;;;;;;404.35;362.52;;;19.30;99.40;;;;;;4991325;28;20057;-60
2022/08/10 07:45:24;;;;;;;408.63;366.27;;;19.40;99.20;;;;;;4991840;28;20057;-60
2022/08/10 07:47:55;;;;;;;402.42;360.58;;;19.50;98.20;;;;;;5007243;28;20509;-60
2022/08/10 07:50:27;;;;;;;373.10;333.88;;;19.60;98.70;;;;;;4991311;28;20558;-61
2022/08/10 07:52:58;;;;;;;399.33;358.35;;;19.70;98.70;;;;;;5006976;28;20046;-60
2022/08/10 07:55:25;;;;;;;400.33;359.35;;;19.70;97.90;;;;;;4991291;28;20137;-60
2022/08/10 07:57:55;;;;;;;387.17;347.30;;;19.80;98.30;;;;;;5005950;28;20065;-60
2022/08/10 08:00:22;;;;;;;421.40;379.02;;;19.90;98.70;;;;;;4991930;28;20053;-61
2022/08/10 08:02:52;;;;;;;394.45;354.38;;;20.00;98.80;;;;;;5008682;28;20147;-61
2022/08/10 08:05:23;;;;;;;415.52;374.40;;;20.10;97.90;;;;;;4990407;28;20054;-59
2022/08/10 08:07:53;;;;;;;497.88;451.67;;;20.20;98.10;;;;;;4989460;28;20046;-59
2022/08/10 08:10:23;;;;;;;449.23;405.80;;;20.30;98.00;;;;;;4990062;28;20053;-59
2022/08/10 08:12:51;;;;;;;459.70;415.92;;;20.40;98.00;;;;;;4991737;28;20078;-60
2022/08/10 08:15:21;;;;;;;476.48;432.52;;;20.60;98.10;;;;;;5005271;28;20051;-59
2022/08/10 08:17:49;;;;;;;503.98;458.60;;;20.70;97.90;;;;;;4989813;28;20047;-60
2022/08/10 08:20:17;;;;;;;495.45;447.75;;;20.80;97.70;;;;;;4988535;28;20046;-59
2022/08/10 08:22:46;;;;;;;456.08;413.52;;;20.90;97.10;;;;;;4989964;28;20114;-59
2022/08/10 08:25:16;;;;;;;467.35;424.25;;;21.10;96.80;;;;;;4989997;28;20500;-59
2022/08/10 08:27:44;;;;;;;449.67;407.98;;;21.20;96.80;;;;;;4988187;28;20039;-59
2022/08/10 08:30:14;;;;;;;442.60;401.58;;;21.40;96.40;;;;;;4990511;28;20134;-59
2022/08/10 08:32:42;;;;;;;438.30;397.20;;;21.40;95.90;;;;;;4990049;28;20051;-59
2022/08/10 08:35:29;;;;;;;427.77;387.58;;;21.40;96.40;;;;;;4990781;28;20046;-59
2022/08/10 08:37:57;;;;;;;426.42;386.42;;;21.50;96.20;;;;;;4998233;28;20062;-59
2022/08/10 08:40:28;;;;;;;429.90;390.30;;;21.60;95.20;;;;;;5005727;28;20050;-59
2022/08/10 08:43:10;;;;;;;412.02;373.48;;;21.60;95.80;;;;;;5007042;28;20050;-59
2022/08/10 08:45:50;;;;;;;419.05;380.10;;;21.70;95.10;;;;;;5013685;28;20058;-60
2022/08/10 08:48:35;;;;;;;438.00;398.02;;;21.70;95.70;;;;;;5005808;28;20057;-62
2022/08/10 08:51:17;;;;;;;438.48;398.50;;;21.90;94.80;;;;;;4999318;28;20047;-61
2022/08/10 08:54:02;;;;;;;419.27;380.70;;;21.90;94.50;;;;;;4989283;28;20087;-61
2022/08/10 08:56:40;;;;;;;420.30;381.80;;;22.10;95.70;;;;;;4997363;28;20519;-61
2022/08/10 08:59:23;;;;;;;446.73;406.90;;;22.30;94.50;;;;;;4999046;28;20059;-60
2022/08/10 09:02:05;;;;;;;446.05;405.33;;;22.40;94.80;;;;;;5004745;28;20058;-60
2022/08/10 09:04:52;;;;;;;443.30;404.08;;;22.50;94.50;;;;;;4999340;28;20059;-60
2022/08/10 09:08:01;;;;;;;509.02;465.95;;;22.70;93.70;;;;;;4992117;28;20129;-61
2022/08/10 09:10:39;;;;;;;617.00;569.38;;;22.80;92.80;;;;;;4996441;28;20050;-60
2022/08/10 09:13:13;;;;;;;554.65;509.48;;;22.80;93.30;;;;;;5011482;28;20141;-60
2022/08/10 09:15:48;;;;;;;620.50;572.65;;;22.90;92.90;;;;;;5013878;28;20102;-60
2022/08/10 09:18:20;;;;;;;587.35;541.40;;;23.00;92.10;;;;;;5029036;28;20157;-60
2022/08/10 09:20:50;;;;;;;647.97;599.42;;;23.10;92.50;;;;;;5013469;28;20047;-59
2022/08/10 09:23:25;;;;;;;645.72;597.65;;;23.10;92.80;;;;;;5012167;28;20061;-59
2022/08/10 09:25:59;;;;;;;646.50;598.50;;;23.30;91.80;;;;;;5012842;28;20521;-59
2022/08/10 09:28:35;;;;;;;635.25;587.92;;;23.30;92.00;;;;;;5001661;28;20057;-60
2022/08/10 09:31:05;;;;;;;626.38;579.53;;;23.50;91.40;;;;;;5009278;28;20050;-61
2022/08/10 09:33:49;;;;;;;600.03;554.17;;;23.60;91.30;;;;;;4997658;28;20936;-62
2022/08/10 09:36:26;;;;;;;641.47;594.05;;;23.80;91.40;;;;;;5006292;28;20405;-62
2022/08/10 09:39:02;;;;;;;593.75;548.63;;;24.10;88.80;;;;;;5011856;28;20892;-62
2022/08/10 09:41:41;;;;;;;556.45;512.83;;;24.40;87.80;;;;;;5013215;28;20512;-62
2022/08/10 09:44:21;;;;;;;608.78;563.00;;;24.50;85.60;;;;;;5011955;28;20050;-62
2022/08/10 09:47:01;;;;;;;583.70;539.42;;;24.70;82.90;;;;;;5011871;28;20050;-62
2022/08/10 09:49:38;;;;;;;584.13;538.10;;;24.80;82.30;;;;;;5010529;28;20515;-62
2022/08/10 09:52:12;;;;;;;624.20;578.65;;;24.90;78.30;;;;;;5013196;28;20077;-62
2022/08/10 09:55:03;;;;;;;792.22;733.30;;;25.10;80.00;;;;;;5012908;28;20594;-63
2022/08/10 09:57:35;;;;;;;780.58;728.42;;;25.20;77.20;;;;;;5004568;28;20121;-60
2022/08/10 10:00:09;;;;;;;928.17;863.08;;;25.40;77.20;;;;;;5009259;28;20051;-60
2022/08/10 10:02:42;;;;;;;;;;;25.60;76.60;;;;;;4891037;28;20056;-60
2022/08/10 10:05:21;;;;;;;1002.55;935.80;;;25.70;77.40;;;;;;4996100;28;19933;-60
2022/08/10 10:07:57;;;;;;;982.20;917.20;;;25.70;76.40;;;;;;5002647;28;20129;-60
2022/08/10 10:10:32;;;;;;;931.90;872.95;;;25.90;73.20;;;;;;5005835;28;20078;-60
2022/08/10 10:13:06;;;;;;;849.08;794.22;;;25.90;74.90;;;;;;4994959;28;20130;-60
2022/08/10 10:15:44;;;;;;;849.67;795.33;;;25.90;76.00;;;;;;5004524;28;20161;-60
2022/08/10 10:18:23;;;;;;;880.35;824.67;;;26.00;73.60;;;;;;5015750;28;20063;-60
2022/08/10 10:21:01;;;;;;;842.47;788.55;;;26.10;73.00;;;;;;5009440;28;20061;-60
2022/08/10 10:23:44;;;;;;;864.95;810.03;;;26.20;73.10;;;;;;5011130;28;20051;-60
2022/08/10 10:26:19;;;;;;;978.50;917.55;;;26.40;69.30;;;;;;5005367;28;20497;-60
2022/08/10 10:28:59;;;;;;;961.40;901.55;;;26.50;68.20;;;;;;5000246;28;20046;-60
2022/08/10 10:31:33;;;;;;;1007.35;944.35;;;26.60;68.70;;;;;;4992480;28;20086;-60
2022/08/10 10:34:12;;;;;;;1171.80;999.90;;;26.80;68.90;;;;;;4991674;28;20047;-60
2022/08/10 10:36:41;;;;;;;1088.63;999.90;;;26.90;70.20;;;;;;5008853;28;20058;-60
2022/08/10 10:39:13;;;;;;;1092.68;999.90;;;27.00;69.40;;;;;;4991409;28;20079;-60
2022/08/10 10:41:47;;;;;;;1111.35;999.90;;;27.10;66.00;;;;;;5002072;28;20148;-60
2022/08/10 10:44:32;;;;;;;1025.45;952.90;;;27.20;63.70;;;;;;5002660;28;20059;-61
2022/08/10 10:47:14;;;;;;;1142.45;999.90;;;27.40;64.80;;;;;;5001959;28;20074;-61
2022/08/10 10:49:48;;;;;;;1123.30;999.90;;;27.50;63.50;;;;;;5006722;28;20137;-61
2022/08/10 10:52:29;;;;;;;1197.35;999.90;;;27.50;62.40;;;;;;5005315;28;20130;-61
2022/08/10 10:55:08;;;;;;;1210.75;999.90;;;27.60;63.00;;;;;;5025493;28;20120;-61
2022/08/10 10:57:45;;;;;;;1036.28;973.22;;;27.70;62.30;;;;;;5001458;28;20109;-61
2022/08/10 11:00:14;;;;;;;1159.35;999.90;;;27.90;62.20;;;;;;4966044;28;20086;-61
2022/08/10 11:03:11;;;;;;;1202.40;999.90;;;27.90;62.30;;;;;;5004374;28;20047;-61
2022/08/10 11:05:45;;;;;;;1180.78;999.90;;;28.10;62.10;;;;;;5004084;28;20527;-61
2022/08/10 11:08:16;;;;;;;1150.38;999.90;;;28.10;60.80;;;;;;4999887;28;20573;-61
2022/08/10 11:10:48;;;;;;;1168.75;999.90;;;28.20;62.10;;;;;;5014261;28;20043;-60
2022/08/10 11:13:37;;;;;;;1123.45;999.90;;;28.30;62.10;;;;;;5005643;28;20046;-60
2022/08/10 11:16:10;;;;;;;1085.50;999.90;;;28.30;61.50;;;;;;5003964;28;20596;-61
2022/08/10 11:18:54;;;;;;;1201.32;999.90;;;28.30;59.70;;;;;;4997859;28;20050;-61
2022/08/10 11:21:30;;;;;;;1155.00;999.90;;;28.40;58.10;;;;;;5003757;28;20066;-61
2022/08/10 11:24:03;;;;;;;1159.93;999.90;;;28.40;58.30;;;;;;5003371;28;20173;-61
2022/08/10 11:26:36;;;;;;;1207.07;999.90;;;28.50;58.10;;;;;;4997792;28;20055;-61
2022/08/10 11:29:09;;;;;;;1191.20;999.90;;;28.50;58.60;;;;;;4994650;28;20504;-61
2022/08/10 11:31:44;;;;;;;1156.97;999.90;;;28.60;57.90;;;;;;4999594;28;20980;-61
2022/08/10 11:34:21;;;;;;;1200.78;999.90;;;28.60;56.80;;;;;;5004695;28;20141;-61
2022/08/10 11:36:58;;;;;;;1215.90;999.90;;;28.60;57.40;;;;;;5011692;28;20062;-60
2022/08/10 11:39:35;;;;;;;1176.93;999.90;;;28.60;57.00;;;;;;5010624;28;20058;-61
2022/08/10 11:42:11;;;;;;;1218.70;999.90;;;28.60;57.10;;;;;;5010776;28;20130;-61
2022/08/10 11:44:47;;;;;;;1220.22;999.90;;;28.70;56.00;;;;;;5010073;28;20055;-60
2022/08/10 11:47:19;;;;;;;1140.78;999.90;;;28.80;55.80;;;;;;5010237;28;20077;-61
2022/08/10 11:49:53;;;;;;;1256.13;999.90;;;28.90;55.70;;;;;;5011503;28;20057;-61
2022/08/10 11:52:29;;;;;;;1062.40;986.92;;;29.00;55.60;;;;;;5010098;28;20085;-60
2022/08/10 11:55:04;;;;;;;1113.63;999.90;;;29.10;54.60;;;;;;5010342;28;20073;-61
2022/08/10 11:57:34;;;;;;;1113.78;999.90;;;29.20;53.40;;;;;;5009841;28;20054;-60
2022/08/10 12:00:00;;;;;;;1198.55;999.90;;;29.20;53.90;;;;;;5008135;28;20893;-60
2022/08/10 12:02:32;;;;;;;1165.53;999.90;;;29.30;54.80;;;;;;5008626;28;20047;-60
2022/08/10 12:05:07;;;;;;;1156.60;999.90;;;29.30;54.50;;;;;;5010073;28;20141;-61
2022/08/10 12:07:38;;;;;;;1165.90;999.90;;;29.20;53.40;;;;;;5011516;28;20057;-60
2022/08/10 12:10:06;;;;;;;1175.28;999.90;;;29.30;53.70;;;;;;5009971;28;20555;-60
2022/08/10 12:12:37;;;;;;;1149.97;999.90;;;29.40;53.10;;;;;;5011294;28;20050;-60
2022/08/10 12:15:12;;;;;;;1109.28;999.90;;;29.50;52.60;;;;;;5011670;28;20531;-60
2022/08/10 12:17:46;;;;;;;1153.50;999.90;;;29.70;53.10;;;;;;5026708;28;20056;-60
2022/08/10 12:20:17;;;;;;;1077.97;997.65;;;29.80;52.00;;;;;;5009897;28;20056;-60
2022/08/10 12:22:50;;;;;;;936.33;869.28;;;29.90;52.00;;;;;;5010499;28;20077;-61
2022/08/10 12:25:25;;;;;;;1025.13;955.78;;;30.10;52.80;;;;;;5009709;28;20066;-60
2022/08/10 12:27:56;;;;;;;786.85;727.40;;;30.20;52.90;;;;;;5010048;28;20054;-60
2022/08/10 12:30:32;;;;;;;817.33;756.13;;;30.10;51.80;;;;;;5010039;28;20054;-61